createdAt,value
2022-08-19T00:00:45.087Z,24.96
2022-08-19T00:01:45.218Z,24.98
2022-08-19T00:02:49.895Z,24.99
2022-08-19T00:03:45.631Z,24.95
2022-08-19T00:04:45.763Z,24.98
2022-08-19T00:05:45.893Z,25.01
2022-08-19T00:06:46.181Z,24.99
2022-08-19T00:07:46.218Z,24.98
2022-08-19T00:08:46.482Z,24.98
2022-08-19T00:09:46.540Z,24.98
2022-08-19T00:10:46.707Z,24.99
2022-08-19T00:11:47.001Z,24.96
2022-08-19T00:12:47.229Z,24.98
2022-08-19T00:13:47.209Z,24.98
2022-08-19T00:14:47.455Z,25.01
2022-08-19T00:15:47.596Z,25.03
2022-08-19T00:16:47.721Z,25.01
2022-08-19T00:17:47.922Z,25.03
2022-08-19T00:18:48.090Z,24.99
2022-08-19T00:19:48.220Z,24.96
2022-08-19T00:20:48.381Z,24.98
2022-08-19T00:21:48.628Z,24.98
2022-08-19T00:22:48.800Z,24.99
2022-08-19T00:23:48.890Z,24.99
2022-08-19T00:24:50.891Z,24.95
2022-08-19T00:25:49.271Z,24.95
2022-08-19T00:26:49.481Z,24.95
2022-08-19T00:27:49.723Z,24.92
2022-08-19T00:28:49.833Z,24.89
2022-08-19T00:29:52.603Z,24.88
2022-08-19T00:30:50.193Z,24.89
2022-08-19T00:31:50.784Z,24.92
2022-08-19T00:32:50.623Z,24.93
2022-08-19T00:33:50.696Z,24.93
2022-08-19T00:34:50.853Z,24.95
2022-08-19T00:35:56.003Z,24.92
2022-08-19T00:36:52.249Z,24.88
2022-08-19T00:37:51.371Z,24.89
2022-08-19T00:38:51.639Z,24.86
2022-08-19T00:39:51.818Z,24.86
2022-08-19T00:40:51.942Z,24.86
2022-08-19T00:41:52.115Z,24.85
2022-08-19T00:42:52.459Z,24.88
2022-08-19T00:43:52.433Z,24.85
2022-08-19T00:44:52.634Z,24.85
2022-08-19T00:45:52.865Z,24.84
2022-08-19T00:46:55.580Z,24.81
2022-08-19T00:47:54.154Z,24.86
2022-08-19T00:48:53.396Z,24.89
2022-08-19T00:49:53.481Z,24.88
2022-08-19T00:50:53.661Z,24.85
2022-08-19T00:51:53.922Z,24.84
2022-08-19T00:52:54.093Z,24.86
2022-08-19T00:53:54.164Z,24.81
2022-08-19T00:54:54.444Z,24.80
2022-08-19T00:55:54.608Z,24.78
2022-08-19T00:56:54.724Z,24.78
2022-08-19T00:57:54.924Z,24.77
2022-08-19T00:58:55.101Z,24.77
2022-08-19T01:00:01.879Z,24.74
2022-08-19T01:00:56.404Z,24.74
2022-08-19T01:01:55.689Z,24.69
2022-08-19T01:02:55.737Z,24.68
2022-08-19T01:03:57.043Z,24.69
2022-08-19T01:04:56.148Z,24.66
2022-08-19T01:05:56.254Z,24.66
2022-08-19T01:06:56.375Z,24.61
2022-08-19T01:07:56.545Z,24.60
2022-08-19T01:08:56.707Z,24.58
2022-08-19T01:09:56.978Z,24.57
2022-08-19T01:10:57.069Z,24.54
2022-08-19T01:11:57.236Z,24.55
2022-08-19T01:12:57.478Z,24.57
2022-08-19T01:13:57.601Z,24.58
2022-08-19T01:14:57.756Z,24.60
2022-08-19T01:15:58.058Z,24.61
2022-08-19T01:16:58.173Z,24.61
2022-08-19T01:17:58.293Z,24.63
2022-08-19T01:18:58.468Z,24.68
2022-08-19T01:19:58.693Z,24.70
2022-08-19T01:20:58.826Z,24.74
2022-08-19T01:21:58.988Z,24.76
2022-08-19T01:23:00.242Z,24.78
2022-08-19T01:23:59.341Z,24.80
2022-08-19T01:24:59.501Z,24.81
2022-08-19T01:25:59.779Z,24.81
2022-08-19T01:26:59.846Z,24.84
2022-08-19T01:28:02.156Z,24.84
2022-08-19T01:29:01.288Z,24.80
2022-08-19T01:30:00.402Z,24.81
2022-08-19T01:31:00.560Z,24.80
2022-08-19T01:32:00.799Z,24.81
2022-08-19T01:33:00.895Z,24.84
2022-08-19T01:34:01.045Z,24.84
2022-08-19T01:35:01.243Z,24.85
2022-08-19T01:36:01.431Z,24.86
2022-08-19T01:37:01.550Z,24.89
2022-08-19T01:38:01.708Z,24.91
2022-08-19T01:39:01.928Z,24.89
2022-08-19T01:40:04.379Z,24.88
2022-08-19T01:41:03.249Z,24.89
2022-08-19T01:42:03.421Z,24.86
2022-08-19T01:43:02.604Z,24.84
2022-08-19T01:44:13.781Z,24.80
2022-08-19T01:45:03.970Z,24.77
2022-08-19T01:46:03.130Z,24.77
2022-08-19T01:47:03.290Z,24.77
2022-08-19T01:48:03.450Z,24.78
2022-08-19T01:49:03.661Z,24.80
2022-08-19T01:50:03.800Z,24.81
2022-08-19T01:51:04.001Z,24.78
2022-08-19T01:52:04.179Z,24.78
2022-08-19T01:53:06.988Z,24.77
2022-08-19T01:54:04.511Z,24.76
2022-08-19T01:55:04.718Z,24.77
2022-08-19T01:56:04.849Z,24.77
2022-08-19T01:57:05.001Z,24.74
2022-08-19T01:58:05.247Z,24.73
2022-08-19T01:59:05.361Z,24.65
2022-08-19T02:00:05.561Z,24.61
2022-08-19T02:01:05.823Z,24.61
2022-08-19T02:02:05.971Z,24.55
2022-08-19T02:03:06.072Z,24.48
2022-08-19T02:04:06.261Z,24.43
2022-08-19T02:05:06.515Z,24.39
2022-08-19T02:06:06.612Z,24.35
2022-08-19T02:07:06.761Z,24.29
2022-08-19T02:08:07.051Z,24.18
2022-08-19T02:09:07.122Z,24.13
2022-08-19T02:10:09.429Z,24.03
2022-08-19T02:11:08.487Z,23.93
2022-08-19T02:12:07.622Z,23.83
2022-08-19T02:13:07.856Z,23.76
2022-08-19T02:14:08.006Z,23.69
2022-08-19T02:15:08.154Z,23.62
2022-08-19T02:16:08.383Z,23.59
2022-08-19T02:17:08.556Z,23.58
2022-08-19T02:18:08.704Z,23.51
2022-08-19T02:19:08.865Z,23.48
2022-08-19T02:20:09.093Z,23.43
2022-08-19T02:21:09.223Z,23.39
2022-08-19T02:22:09.383Z,23.34
2022-08-19T02:23:13.853Z,23.28
2022-08-19T02:24:10.724Z,23.25
2022-08-19T02:25:09.904Z,23.25
2022-08-19T02:26:10.225Z,23.24
2022-08-19T02:27:10.277Z,23.27
2022-08-19T02:28:10.443Z,23.27
2022-08-19T02:29:10.652Z,23.25
2022-08-19T02:30:14.154Z,23.25
2022-08-19T02:31:10.974Z,23.27
2022-08-19T02:32:11.114Z,23.27
2022-08-19T02:33:11.340Z,23.28
2022-08-19T02:34:11.445Z,23.28
2022-08-19T02:35:12.313Z,23.28
2022-08-19T02:36:11.846Z,23.28
2022-08-19T02:37:11.945Z,23.31
2022-08-19T02:38:12.144Z,23.27
2022-08-19T02:39:12.396Z,23.32
2022-08-19T02:40:12.857Z,23.31
2022-08-19T02:41:12.652Z,23.31
2022-08-19T02:42:12.897Z,23.27
2022-08-19T02:43:12.994Z,23.28
2022-08-19T02:44:29.689Z,23.25
2022-08-19T02:45:14.376Z,23.23
2022-08-19T02:46:13.570Z,23.23
2022-08-19T02:47:13.685Z,23.21
2022-08-19T02:48:21.475Z,23.21
2022-08-19T02:49:15.025Z,23.20
2022-08-19T02:50:14.308Z,23.17
2022-08-19T02:51:14.375Z,23.17
2022-08-19T02:52:14.545Z,23.15
2022-08-19T02:53:14.779Z,23.17
2022-08-19T02:54:14.889Z,23.17
2022-08-19T02:55:15.058Z,23.18
2022-08-19T02:56:15.226Z,23.21
2022-08-19T02:57:15.379Z,23.21
2022-08-19T02:58:15.665Z,23.20
2022-08-19T02:59:15.739Z,23.23
2022-08-19T03:00:15.906Z,23.25
2022-08-19T03:01:16.120Z,23.28
2022-08-19T03:02:16.276Z,23.28
2022-08-19T03:03:16.434Z,23.31
2022-08-19T03:04:16.669Z,23.32
2022-08-19T03:05:16.819Z,23.34
2022-08-19T03:06:17.019Z,23.36
2022-08-19T03:07:17.181Z,23.32
2022-08-19T03:08:17.327Z,23.34
2022-08-19T03:09:17.485Z,23.36
2022-08-19T03:10:17.774Z,23.39
2022-08-19T03:11:17.833Z,23.37
2022-08-19T03:12:18.027Z,23.39
2022-08-19T03:13:18.260Z,23.34
2022-08-19T03:14:18.376Z,23.37
2022-08-19T03:15:18.548Z,23.37
2022-08-19T03:16:18.801Z,23.40
2022-08-19T03:17:18.869Z,23.41
2022-08-19T03:18:19.029Z,23.39
2022-08-19T03:19:19.270Z,23.41
2022-08-19T03:20:19.406Z,23.43
2022-08-19T03:21:19.548Z,23.43
2022-08-19T03:22:19.752Z,23.43
2022-08-19T03:23:19.898Z,23.41
2022-08-19T03:24:20.188Z,23.41
2022-08-19T03:25:20.298Z,23.37
2022-08-19T03:26:20.439Z,23.37
2022-08-19T03:27:20.621Z,23.37
2022-08-19T03:28:20.837Z,23.39
2022-08-19T03:29:30.328Z,23.39
2022-08-19T03:30:23.367Z,23.37
2022-08-19T03:31:44.283Z,23.37
2022-08-19T03:32:32.978Z,23.36
2022-08-19T03:33:27.591Z,23.37
2022-08-19T03:34:22.892Z,23.40
2022-08-19T03:35:22.000Z,23.40
2022-08-19T03:36:22.171Z,23.37
2022-08-19T03:37:22.432Z,23.36
2022-08-19T03:38:22.524Z,23.34
2022-08-19T03:39:22.715Z,23.32
2022-08-19T03:40:22.905Z,23.31
2022-08-19T03:41:23.070Z,23.31
2022-08-19T03:42:38.826Z,23.31
2022-08-19T03:43:24.459Z,23.28
2022-08-19T03:44:23.632Z,23.31
2022-08-19T03:45:23.814Z,23.31
2022-08-19T03:46:24.004Z,23.28
2022-08-19T03:47:24.134Z,23.28
2022-08-19T03:48:24.351Z,23.25
2022-08-19T03:49:27.093Z,23.25
2022-08-19T03:50:24.672Z,23.27
2022-08-19T03:51:31.152Z,23.28
2022-08-19T03:52:26.041Z,23.28
2022-08-19T03:53:25.231Z,23.28
2022-08-19T03:54:25.541Z,23.28
2022-08-19T03:55:25.590Z,23.27
2022-08-19T03:56:25.752Z,23.25
2022-08-19T03:57:31.800Z,23.25
2022-08-19T03:58:27.124Z,23.25
2022-08-19T03:59:26.312Z,23.24
2022-08-19T04:00:26.584Z,23.23
2022-08-19T04:01:33.048Z,23.24
2022-08-19T04:02:27.822Z,23.25
2022-08-19T04:03:27.011Z,23.24
2022-08-19T04:04:29.051Z,23.24
2022-08-19T04:05:27.825Z,23.25
2022-08-19T04:06:27.543Z,23.25
2022-08-19T04:07:27.726Z,23.25
2022-08-19T04:08:27.863Z,23.27
2022-08-19T04:09:28.075Z,23.27
2022-08-19T04:10:28.281Z,23.28
2022-08-19T04:11:43.181Z,23.31
2022-08-19T04:12:29.533Z,23.32
2022-08-19T04:13:28.803Z,23.32
2022-08-19T04:14:28.950Z,23.37
2022-08-19T04:15:29.094Z,23.37
2022-08-19T04:16:34.985Z,23.40
2022-08-19T04:17:30.434Z,23.39
2022-08-19T04:18:32.563Z,23.40
2022-08-19T04:19:30.775Z,23.41
2022-08-19T04:20:29.927Z,23.40
2022-08-19T04:21:30.196Z,23.43
2022-08-19T04:22:30.311Z,23.43
2022-08-19T04:23:30.474Z,23.46
2022-08-19T04:24:30.808Z,23.47
2022-08-19T04:25:30.845Z,23.48
2022-08-19T04:26:31.113Z,23.51
2022-08-19T04:27:31.213Z,23.48
2022-08-19T04:28:31.354Z,23.54
2022-08-19T04:29:31.581Z,23.48
2022-08-19T04:30:31.763Z,23.51
2022-08-19T04:31:31.865Z,23.55
2022-08-19T04:32:32.069Z,23.56
2022-08-19T04:33:32.185Z,23.58
2022-08-19T04:34:32.393Z,23.56
2022-08-19T04:35:32.598Z,23.58
2022-08-19T04:36:32.723Z,23.55
2022-08-19T04:37:35.344Z,23.55
2022-08-19T04:38:33.187Z,23.54
2022-08-19T04:39:33.322Z,23.55
2022-08-19T04:40:33.456Z,23.54
2022-08-19T04:41:33.706Z,23.55
2022-08-19T04:42:33.829Z,23.56
2022-08-19T04:43:33.977Z,23.54
2022-08-19T04:44:35.129Z,23.55
2022-08-19T04:45:39.496Z,23.50
2022-08-19T04:46:40.065Z,23.51
2022-08-19T04:47:47.443Z,23.55
2022-08-19T04:48:35.932Z,23.56
2022-08-19T04:49:36.028Z,23.58
2022-08-19T04:50:35.184Z,23.58
2022-08-19T04:51:35.439Z,23.61
2022-08-19T04:52:35.537Z,23.59
2022-08-19T04:53:37.778Z,23.62
2022-08-19T04:54:38.285Z,23.66
2022-08-19T04:55:38.316Z,23.73
2022-08-19T04:56:36.251Z,23.69
2022-08-19T04:57:36.509Z,23.69
2022-08-19T04:58:36.635Z,23.74
2022-08-19T04:59:36.808Z,23.80
2022-08-19T05:00:37.044Z,23.84
2022-08-19T05:01:37.170Z,23.92
2022-08-19T05:02:37.296Z,23.96
2022-08-19T05:03:37.479Z,23.99
2022-08-19T05:04:37.758Z,24.05
2022-08-19T05:05:45.205Z,24.11
2022-08-19T05:06:39.017Z,24.11
2022-08-19T05:07:38.198Z,24.17
2022-08-19T05:08:38.371Z,24.17
2022-08-19T05:09:55.347Z,24.23
2022-08-19T05:10:39.711Z,24.32
2022-08-19T05:11:38.971Z,24.36
2022-08-19T05:12:39.060Z,24.39
2022-08-19T05:13:39.241Z,24.42
2022-08-19T05:14:39.549Z,24.47
2022-08-19T05:15:39.589Z,24.48
2022-08-19T05:16:39.770Z,24.50
2022-08-19T05:17:40.031Z,24.45
2022-08-19T05:18:40.134Z,24.45
2022-08-19T05:19:40.322Z,24.45
2022-08-19T05:20:40.545Z,24.48
2022-08-19T05:21:40.662Z,24.50
2022-08-19T05:22:40.830Z,24.53
2022-08-19T05:23:41.020Z,24.55
2022-08-19T05:24:56.400Z,24.50
2022-08-19T05:25:42.361Z,24.53
2022-08-19T05:26:41.532Z,24.58
2022-08-19T05:27:41.794Z,24.61
2022-08-19T05:28:41.884Z,24.68
2022-08-19T05:29:42.162Z,24.73
2022-08-19T05:30:47.111Z,24.88
2022-08-19T05:31:43.416Z,25.11
2022-08-19T05:32:42.681Z,25.40
2022-08-19T05:33:42.771Z,25.60
2022-08-19T05:34:42.962Z,25.81
2022-08-19T05:35:43.204Z,25.88
2022-08-19T05:36:43.308Z,25.93
2022-08-19T05:37:43.452Z,25.96
2022-08-19T05:38:43.705Z,25.99
2022-08-19T05:39:46.460Z,26.02
2022-08-19T05:40:43.983Z,26.02
2022-08-19T05:41:44.183Z,26.03
2022-08-19T05:42:44.399Z,25.98
2022-08-19T05:43:45.543Z,25.98
2022-08-19T05:44:44.747Z,25.96
2022-08-19T05:45:44.986Z,25.95
2022-08-19T05:46:45.079Z,25.95
2022-08-19T05:47:45.244Z,25.98
2022-08-19T05:48:45.506Z,25.98
2022-08-19T05:49:45.625Z,25.99
2022-08-19T05:50:45.826Z,26.02
2022-08-19T05:51:45.959Z,26.00
2022-08-19T05:52:50.146Z,26.03
2022-08-19T05:53:46.417Z,26.05
2022-08-19T05:54:46.525Z,26.07
2022-08-19T05:55:46.684Z,26.13
2022-08-19T05:56:46.890Z,26.15
2022-08-19T05:57:47.056Z,26.19
2022-08-19T05:58:47.196Z,26.16
2022-08-19T05:59:47.385Z,26.19
2022-08-19T06:00:47.576Z,26.23
2022-08-19T06:01:47.732Z,26.28
2022-08-19T06:02:47.988Z,26.34
2022-08-19T06:03:48.141Z,26.43
2022-08-19T06:04:48.279Z,26.53
2022-08-19T06:05:51.695Z,26.60
2022-08-19T06:06:48.687Z,26.68
2022-08-19T06:07:48.785Z,26.77
2022-08-19T06:08:48.957Z,26.85
2022-08-19T06:10:00.448Z,26.95
2022-08-19T06:10:50.327Z,27.02
2022-08-19T06:11:51.815Z,27.05
2022-08-19T06:12:49.697Z,27.11
2022-08-19T06:13:49.883Z,27.14
2022-08-19T06:15:00.640Z,27.21
2022-08-19T06:15:51.309Z,27.27
2022-08-19T06:16:50.399Z,27.30
2022-08-19T06:17:50.581Z,27.37
2022-08-19T06:18:50.817Z,27.42
2022-08-19T06:19:50.958Z,27.47
2022-08-19T06:20:58.195Z,27.49
2022-08-19T06:21:52.380Z,27.52
2022-08-19T06:22:51.485Z,27.51
2022-08-19T06:23:51.667Z,27.58
2022-08-19T06:24:51.960Z,27.59
2022-08-19T06:25:52.010Z,27.60
2022-08-19T06:26:52.278Z,27.63
2022-08-19T06:28:13.905Z,27.65
2022-08-19T06:28:53.529Z,27.70
2022-08-19T06:29:52.728Z,27.75
2022-08-19T06:30:52.860Z,27.77
2022-08-19T06:31:53.029Z,27.83
2022-08-19T06:32:53.190Z,27.93
2022-08-19T06:33:53.360Z,28.00
2022-08-19T06:34:53.559Z,28.01
2022-08-19T06:35:53.711Z,28.02
2022-08-19T06:36:53.870Z,28.11
2022-08-19T06:37:54.039Z,28.20
2022-08-19T06:38:54.201Z,28.30
2022-08-19T06:39:54.409Z,28.35
2022-08-19T06:40:54.531Z,28.44
2022-08-19T06:41:58.151Z,28.54
2022-08-19T06:42:55.530Z,28.59
2022-08-19T06:43:55.736Z,28.62
2022-08-19T06:44:55.220Z,28.69
2022-08-19T06:45:55.362Z,28.70
2022-08-19T06:46:55.532Z,28.72
2022-08-19T06:47:55.703Z,28.74
2022-08-19T06:48:55.879Z,28.74
2022-08-19T06:49:56.061Z,28.72
2022-08-19T06:50:57.241Z,28.78
2022-08-19T06:51:56.417Z,28.81
2022-08-19T06:52:56.705Z,28.84
2022-08-19T06:53:56.746Z,28.85
2022-08-19T06:54:57.010Z,28.97
2022-08-19T06:55:57.093Z,29.02
2022-08-19T06:56:57.255Z,29.12
2022-08-19T06:57:57.517Z,29.08
2022-08-19T06:58:57.586Z,29.16
2022-08-19T06:59:57.767Z,29.20
2022-08-19T07:00:58.007Z,29.32
2022-08-19T07:01:58.102Z,29.39
2022-08-19T07:03:01.878Z,29.39
2022-08-19T07:03:59.447Z,29.41
2022-08-19T07:04:58.637Z,29.44
2022-08-19T07:05:58.767Z,29.41
2022-08-19T07:06:58.927Z,29.44
2022-08-19T07:08:04.596Z,29.53
2022-08-19T07:09:00.257Z,29.68
2022-08-19T07:10:01.821Z,29.79
2022-08-19T07:10:59.678Z,29.94
2022-08-19T07:11:59.766Z,30.06
2022-08-19T07:13:00.011Z,30.15
2022-08-19T07:14:00.127Z,30.18
2022-08-19T07:15:00.306Z,30.27
2022-08-19T07:16:00.569Z,30.39
2022-08-19T07:17:01.658Z,30.48
2022-08-19T07:18:00.846Z,30.59
2022-08-19T07:19:11.801Z,30.66
2022-08-19T07:20:05.547Z,30.70
2022-08-19T07:21:01.359Z,30.70
2022-08-19T07:22:01.623Z,30.69
2022-08-19T07:23:01.737Z,30.65
2022-08-19T07:24:05.392Z,30.47
2022-08-19T07:25:02.119Z,30.30
2022-08-19T07:27:02.451Z,30.03
2022-08-19T07:28:02.640Z,29.82
2022-08-19T07:29:02.884Z,29.68
2022-08-19T07:30:03.008Z,29.51
2022-08-19T07:31:03.141Z,29.41
2022-08-19T07:32:03.368Z,29.24
2022-08-19T07:33:03.747Z,29.13
2022-08-19T07:34:03.632Z,29.04
2022-08-19T07:35:03.918Z,28.96
2022-08-19T07:36:04.002Z,28.91
2022-08-19T07:37:04.183Z,28.76
2022-08-19T07:38:04.373Z,28.64
2022-08-19T07:39:04.561Z,28.57
2022-08-19T07:40:04.757Z,28.54
2022-08-19T07:41:04.913Z,28.51
2022-08-19T07:42:05.041Z,28.49
2022-08-19T07:43:05.223Z,28.44
2022-08-19T07:44:05.491Z,28.42
2022-08-19T07:45:05.573Z,28.45
2022-08-19T07:46:05.783Z,28.52
2022-08-19T07:47:05.913Z,28.54
2022-08-19T07:48:06.248Z,28.60
2022-08-19T07:49:06.303Z,28.63
2022-08-19T07:50:06.443Z,28.66
2022-08-19T07:51:06.643Z,28.64
2022-08-19T07:52:06.811Z,28.66
2022-08-19T07:53:06.984Z,28.76
2022-08-19T07:54:07.183Z,28.84
2022-08-19T07:55:07.390Z,28.98
2022-08-19T07:56:08.504Z,29.12
2022-08-19T07:57:07.688Z,29.20
2022-08-19T07:58:07.923Z,29.23
2022-08-19T07:59:08.027Z,29.22
2022-08-19T08:00:08.176Z,29.17
2022-08-19T08:01:08.437Z,29.13
2022-08-19T08:02:08.600Z,29.17
2022-08-19T08:03:08.705Z,29.14
2022-08-19T08:04:08.916Z,29.16
2022-08-19T08:05:09.055Z,29.22
2022-08-19T08:06:09.324Z,29.24
2022-08-19T08:07:09.420Z,29.31
2022-08-19T08:08:09.596Z,29.27
2022-08-19T08:09:09.955Z,29.26
2022-08-19T08:10:20.650Z,29.23
2022-08-19T08:11:11.165Z,29.22
2022-08-19T08:12:33.076Z,29.16
2022-08-19T08:13:11.644Z,29.12
2022-08-19T08:14:29.288Z,29.13
2022-08-19T08:15:12.415Z,29.19
2022-08-19T08:16:14.119Z,29.26
2022-08-19T08:17:11.208Z,29.36
2022-08-19T08:18:11.446Z,29.49
2022-08-19T08:19:12.586Z,29.53
2022-08-19T08:20:12.708Z,29.53
2022-08-19T08:21:12.025Z,29.50
2022-08-19T08:22:12.079Z,29.54
2022-08-19T08:23:12.336Z,29.60
2022-08-19T08:24:12.448Z,29.69
2022-08-19T08:25:12.590Z,29.71
2022-08-19T08:26:12.869Z,29.66
2022-08-19T08:27:12.971Z,29.61
2022-08-19T08:28:17.914Z,29.56
2022-08-19T08:29:14.399Z,29.53
2022-08-19T08:30:13.483Z,29.45
2022-08-19T08:31:13.660Z,29.41
2022-08-19T08:32:15.014Z,29.38
2022-08-19T08:33:14.021Z,29.38
2022-08-19T08:34:14.245Z,29.38
2022-08-19T08:35:14.387Z,29.32
2022-08-19T08:36:14.564Z,29.29
2022-08-19T08:37:16.130Z,29.26
2022-08-19T08:38:14.993Z,29.19
2022-08-19T08:39:15.134Z,29.16
2022-08-19T08:40:15.387Z,29.13
2022-08-19T08:41:15.492Z,29.08
2022-08-19T08:42:17.529Z,29.13
2022-08-19T08:43:15.916Z,29.17
2022-08-19T08:44:16.027Z,29.23
2022-08-19T08:45:16.186Z,29.35
2022-08-19T08:46:30.519Z,29.38
2022-08-19T08:47:17.504Z,29.42
2022-08-19T08:48:22.079Z,29.50
2022-08-19T08:49:17.923Z,29.49
2022-08-19T08:50:17.024Z,29.47
2022-08-19T08:51:20.389Z,29.51
2022-08-19T08:52:17.478Z,29.53
2022-08-19T08:53:17.589Z,29.49
2022-08-19T08:54:18.735Z,29.42
2022-08-19T08:55:17.946Z,29.41
2022-08-19T08:56:18.430Z,29.42
2022-08-19T08:57:18.265Z,29.42
2022-08-19T08:58:18.464Z,29.41
2022-08-19T08:59:18.662Z,29.45
2022-08-19T09:00:18.850Z,29.45
2022-08-19T09:01:19.035Z,29.54
2022-08-19T09:02:19.174Z,29.65
2022-08-19T09:03:19.326Z,29.79
2022-08-19T09:04:19.485Z,29.88
2022-08-19T09:05:22.299Z,29.91
2022-08-19T09:06:19.796Z,29.91
2022-08-19T09:07:34.791Z,29.90
2022-08-19T09:08:21.294Z,29.82
2022-08-19T09:09:20.363Z,29.79
2022-08-19T09:10:20.544Z,29.75
2022-08-19T09:11:42.527Z,29.75
2022-08-19T09:12:26.937Z,29.75
2022-08-19T09:13:22.047Z,29.73
2022-08-19T09:14:48.875Z,29.73
2022-08-19T09:15:22.421Z,29.63
2022-08-19T09:16:27.953Z,29.59
2022-08-19T09:17:22.718Z,29.57
2022-08-19T09:18:21.985Z,29.60
2022-08-19T09:19:22.362Z,29.51
2022-08-19T09:20:22.238Z,29.42
2022-08-19T09:21:25.708Z,29.35
2022-08-19T09:22:25.976Z,29.26
2022-08-19T09:23:26.926Z,29.17
2022-08-19T09:24:23.020Z,29.10
2022-08-19T09:25:27.120Z,29.04
2022-08-19T09:26:24.307Z,28.97
2022-08-19T09:27:42.476Z,28.94
2022-08-19T09:28:26.964Z,28.91
2022-08-19T09:29:23.906Z,28.91
2022-08-19T09:30:24.026Z,28.89
2022-08-19T09:31:24.160Z,28.88
2022-08-19T09:32:26.240Z,28.86
2022-08-19T09:33:24.574Z,28.86
2022-08-19T09:34:24.680Z,28.88
2022-08-19T09:35:24.895Z,28.84
2022-08-19T09:36:34.490Z,28.82
2022-08-19T09:37:26.204Z,28.75
2022-08-19T09:38:25.462Z,28.70
2022-08-19T09:39:25.541Z,28.56
2022-08-19T09:40:26.755Z,28.49
2022-08-19T09:41:25.937Z,28.45
2022-08-19T09:42:29.957Z,28.38
2022-08-19T09:43:33.197Z,28.33
2022-08-19T09:44:27.432Z,28.29
2022-08-19T09:45:26.600Z,28.26
2022-08-19T09:46:26.814Z,28.22
2022-08-19T09:47:26.941Z,28.20
2022-08-19T09:48:27.112Z,28.14
2022-08-19T09:49:27.330Z,28.11
2022-08-19T09:50:27.427Z,28.08
2022-08-19T09:51:27.583Z,28.07
2022-08-19T09:52:32.830Z,28.01
2022-08-19T09:53:28.954Z,27.98
2022-08-19T09:54:28.200Z,27.93
2022-08-19T09:55:31.950Z,27.86
2022-08-19T09:56:28.547Z,27.85
2022-08-19T09:57:28.649Z,27.83
2022-08-19T09:58:28.840Z,27.86
2022-08-19T09:59:29.079Z,27.85
2022-08-19T10:00:29.206Z,27.83
2022-08-19T10:01:29.398Z,27.80
2022-08-19T10:02:29.520Z,27.77
2022-08-19T10:03:30.147Z,27.73
2022-08-19T10:04:29.836Z,27.68
2022-08-19T10:05:30.056Z,27.70
2022-08-19T10:06:43.990Z,27.70
2022-08-19T10:07:36.526Z,27.70
2022-08-19T10:08:31.626Z,27.70
2022-08-19T10:09:34.423Z,27.70
2022-08-19T10:10:30.926Z,27.70
2022-08-19T10:11:39.507Z,27.70
2022-08-19T10:12:32.196Z,27.70
2022-08-19T10:13:31.882Z,27.70
2022-08-19T10:14:31.557Z,27.71
2022-08-19T10:15:31.827Z,27.73
2022-08-19T10:16:32.919Z,27.77
2022-08-19T10:17:33.542Z,27.83
2022-08-19T10:18:32.394Z,27.75
2022-08-19T10:19:32.506Z,27.78
2022-08-19T10:20:32.628Z,27.78
2022-08-19T10:21:32.818Z,27.74
2022-08-19T10:22:33.027Z,27.75
2022-08-19T10:23:33.643Z,27.75
2022-08-19T10:24:33.351Z,27.75
2022-08-19T10:25:33.637Z,27.77
2022-08-19T10:26:33.709Z,27.77
2022-08-19T10:27:33.879Z,27.75
2022-08-19T10:28:34.138Z,27.74
2022-08-19T10:29:34.288Z,27.74
2022-08-19T10:30:34.491Z,27.75
2022-08-19T10:32:00.898Z,27.75
2022-08-19T10:32:35.800Z,27.74
2022-08-19T10:33:53.038Z,27.70
2022-08-19T10:34:36.162Z,27.68
2022-08-19T10:35:42.609Z,27.63
2022-08-19T10:36:36.472Z,27.58
2022-08-19T10:37:36.669Z,27.55
2022-08-19T10:38:36.839Z,27.55
2022-08-19T10:39:42.986Z,27.58
2022-08-19T10:40:37.161Z,27.51
2022-08-19T10:41:36.404Z,27.48
2022-08-19T10:42:36.539Z,27.42
2022-08-19T10:43:36.736Z,27.37
2022-08-19T10:44:36.966Z,27.35
2022-08-19T10:45:37.084Z,27.35
2022-08-19T10:46:38.263Z,27.35
2022-08-19T10:47:37.454Z,27.36
2022-08-19T10:48:37.642Z,27.40
2022-08-19T10:49:37.793Z,27.45
2022-08-19T10:50:38.038Z,27.49
2022-08-19T10:51:38.154Z,27.58
2022-08-19T10:52:39.342Z,27.64
2022-08-19T10:53:39.611Z,27.65
2022-08-19T10:54:38.674Z,27.64
2022-08-19T10:55:38.925Z,27.64
2022-08-19T10:56:39.019Z,27.63
2022-08-19T10:58:01.780Z,27.64
2022-08-19T10:58:40.435Z,27.64
2022-08-19T10:59:39.575Z,27.68
2022-08-19T11:00:39.693Z,27.65
2022-08-19T11:01:39.951Z,27.64
2022-08-19T11:02:40.111Z,27.55
2022-08-19T11:03:40.255Z,27.48
2022-08-19T11:04:40.424Z,27.47
2022-08-19T11:05:40.834Z,27.40
2022-08-19T11:06:40.779Z,27.37
2022-08-19T11:07:40.956Z,27.39
2022-08-19T11:08:41.209Z,27.39
2022-08-19T11:09:41.304Z,27.39
2022-08-19T11:10:41.483Z,27.36
2022-08-19T11:11:42.746Z,27.33
2022-08-19T11:12:41.852Z,27.33
2022-08-19T11:13:42.106Z,27.27
2022-08-19T11:14:42.195Z,27.29
2022-08-19T11:15:42.426Z,27.26
2022-08-19T11:16:42.535Z,27.26
2022-08-19T11:17:42.706Z,27.27
2022-08-19T11:18:42.947Z,27.27
2022-08-19T11:19:43.066Z,27.29
2022-08-19T11:20:43.236Z,27.30
2022-08-19T11:21:43.432Z,27.32
2022-08-19T11:22:43.596Z,27.32
2022-08-19T11:23:43.786Z,27.33
2022-08-19T11:24:43.967Z,27.33
2022-08-19T11:25:44.137Z,27.35
2022-08-19T11:26:44.307Z,27.35
2022-08-19T11:27:44.477Z,27.30
2022-08-19T11:28:44.718Z,27.33
2022-08-19T11:29:44.905Z,27.35
2022-08-19T11:30:45.025Z,27.37
2022-08-19T11:31:45.220Z,27.36
2022-08-19T11:32:49.196Z,27.33
2022-08-19T11:33:47.192Z,27.36
2022-08-19T11:34:45.869Z,27.35
2022-08-19T11:35:45.918Z,27.35
2022-08-19T11:36:46.089Z,27.36
2022-08-19T11:37:46.298Z,27.30
2022-08-19T11:38:46.458Z,27.29
2022-08-19T11:39:46.762Z,27.30
2022-08-19T11:40:47.800Z,27.27
2022-08-19T11:41:46.979Z,27.22
2022-08-19T11:42:47.204Z,27.21
2022-08-19T11:43:47.345Z,27.17
2022-08-19T11:44:47.519Z,27.15
2022-08-19T11:45:47.779Z,27.14
2022-08-19T11:46:47.905Z,27.12
2022-08-19T11:47:48.094Z,27.08
2022-08-19T11:48:48.318Z,27.08
2022-08-19T11:49:48.473Z,27.10
2022-08-19T11:50:48.660Z,27.10
2022-08-19T11:51:48.792Z,27.12
2022-08-19T11:52:49.028Z,27.08
2022-08-19T11:53:49.161Z,27.08
2022-08-19T11:54:49.310Z,27.07
2022-08-19T11:55:49.583Z,27.08
2022-08-19T11:56:49.672Z,27.10
2022-08-19T11:57:49.862Z,27.15
2022-08-19T11:58:50.042Z,27.18
2022-08-19T11:59:50.200Z,27.20
2022-08-19T12:00:51.423Z,27.17
2022-08-19T12:01:50.520Z,27.17
2022-08-19T12:02:50.683Z,27.21
2022-08-19T12:03:51.031Z,27.20
2022-08-19T12:04:51.034Z,27.21
2022-08-19T12:05:51.218Z,27.25
2022-08-19T12:06:51.441Z,27.22
2022-08-19T12:07:51.574Z,27.26
2022-08-19T12:08:51.752Z,27.27
2022-08-19T12:09:51.945Z,27.29
2022-08-19T12:10:52.082Z,27.30
2022-08-19T12:11:52.301Z,27.33
2022-08-19T12:12:58.071Z,27.40
2022-08-19T12:13:53.685Z,27.42
2022-08-19T12:14:52.754Z,27.44
2022-08-19T12:15:52.926Z,27.49
2022-08-19T12:16:53.108Z,27.58
2022-08-19T12:17:53.444Z,27.59
2022-08-19T12:18:53.436Z,27.59
2022-08-19T12:19:53.599Z,27.58
2022-08-19T12:20:53.745Z,27.51
2022-08-19T12:21:53.969Z,27.49
2022-08-19T12:22:54.133Z,27.44
2022-08-19T12:23:55.925Z,27.39
2022-08-19T12:24:54.446Z,27.37
2022-08-19T12:25:54.657Z,27.35
2022-08-19T12:26:54.767Z,27.32
2022-08-19T12:27:57.665Z,27.30
2022-08-19T12:28:55.182Z,27.27
2022-08-19T12:29:55.304Z,27.29
2022-08-19T12:30:55.514Z,27.29
2022-08-19T12:31:55.614Z,27.29
2022-08-19T12:32:55.777Z,27.30
2022-08-19T12:33:56.047Z,27.32
2022-08-19T12:34:56.127Z,27.35
2022-08-19T12:35:56.304Z,27.36
2022-08-19T12:36:56.460Z,27.37
2022-08-19T12:37:57.311Z,27.39
2022-08-19T12:38:56.806Z,27.44
2022-08-19T12:39:57.013Z,27.44
2022-08-19T12:41:00.170Z,27.40
2022-08-19T12:41:57.382Z,27.39
2022-08-19T12:42:57.503Z,27.39
2022-08-19T12:43:57.709Z,27.39
2022-08-19T12:44:57.917Z,27.39
2022-08-19T12:45:58.069Z,27.40
2022-08-19T12:46:58.201Z,27.45
2022-08-19T12:47:58.529Z,27.48
2022-08-19T12:48:58.637Z,27.45
2022-08-19T12:49:58.718Z,27.49
2022-08-19T12:50:58.870Z,27.51
2022-08-19T12:51:59.080Z,27.54
2022-08-19T12:52:59.247Z,27.59
2022-08-19T12:53:59.410Z,27.65
2022-08-19T12:54:59.623Z,27.73
2022-08-19T12:55:59.750Z,27.77